RWD112 HRYR-FLKK
Flight info
| Callsign | RWD112 |
|---|---|
| Flight time | 2h 4m |
| Altitude | 23000 |
| Route | GAVDA1D GAVDA L432 BJA/N0385F240 B527 TUPIR/N0452F360 UB527 KMI UA409 VND/N0378F240 A409 AVEKU AVEKU1A |
| Aircraft | B738/M-SDE2E3FGHIRWXY/LB1 |
Departure
| Time | 2026-05-08 07:56 |
|---|---|
| Airport | Kigali International Airport (HRYR) |
Arrival
| Time | 2026-05-08 10:01 |
|---|---|
| Airport | Kenneth Kaunda International Airport (FLKK) |
| Time | Latitude | Longitude | Altitude | Speed | Heading |
|---|---|---|---|---|---|
| 2026-05-08 07:21 | -1.96456 | 30.13585 | 4893 ft | 0 kts | 55° |
| 2026-05-08 07:41 | -1.96455 | 30.13585 | 4892 ft | 0 kts | 55° |
| 2026-05-08 07:41 | -1.96460 | 30.13576 | 4893 ft | 2 kts | 81° |
| 2026-05-08 07:41 | -1.96461 | 30.13561 | 4893 ft | 2 kts | 88° |
| 2026-05-08 07:41 | -1.96466 | 30.13549 | 4893 ft | 1 kts | 43° |
| 2026-05-08 07:42 | -1.96473 | 30.13542 | 4893 ft | 2 kts | 52° |
| 2026-05-08 07:42 | -1.96484 | 30.13531 | 4893 ft | 2 kts | 37° |
| 2026-05-08 07:42 | -1.96496 | 30.13523 | 4894 ft | 2 kts | 28° |
| 2026-05-08 07:42 | -1.96510 | 30.13517 | 4894 ft | 2 kts | 18° |
| 2026-05-08 07:43 | -1.96525 | 30.13513 | 4895 ft | 2 kts | 8° |
| 2026-05-08 07:43 | -1.96540 | 30.13512 | 4895 ft | 2 kts | 358° |
| 2026-05-08 07:43 | -1.96555 | 30.13514 | 4895 ft | 2 kts | 348° |
| 2026-05-08 07:43 | -1.96569 | 30.13518 | 4895 ft | 2 kts | 338° |
| 2026-05-08 07:44 | -1.96583 | 30.13525 | 4895 ft | 2 kts | 327° |
| 2026-05-08 07:44 | -1.96595 | 30.13534 | 4895 ft | 2 kts | 317° |
| 2026-05-08 07:44 | -1.96605 | 30.13545 | 4895 ft | 2 kts | 307° |
| 2026-05-08 07:44 | -1.96614 | 30.13557 | 4895 ft | 2 kts | 297° |
| 2026-05-08 07:45 | -1.96619 | 30.13571 | 4894 ft | 2 kts | 287° |
| 2026-05-08 07:45 | -1.96622 | 30.13581 | 4894 ft | 0 kts | 280° |
| 2026-05-08 07:45 | -1.96623 | 30.13586 | 4894 ft | 0 kts | 278° |
| 2026-05-08 07:49 | -1.96623 | 30.13585 | 4894 ft | 0 kts | 278° |
| 2026-05-08 07:50 | -1.96623 | 30.13584 | 4894 ft | 1 kts | 278° |
| 2026-05-08 07:50 | -1.96623 | 30.13550 | 4894 ft | 6 kts | 268° |
| 2026-05-08 07:51 | -1.96620 | 30.13497 | 4894 ft | 10 kts | 276° |
| 2026-05-08 07:51 | -1.96608 | 30.13427 | 4894 ft | 11 kts | 281° |
| 2026-05-08 07:51 | -1.96592 | 30.13347 | 4894 ft | 11 kts | 281° |
| 2026-05-08 07:51 | -1.96577 | 30.13260 | 4893 ft | 13 kts | 280° |
| 2026-05-08 07:52 | -1.96560 | 30.13159 | 4889 ft | 16 kts | 279° |
| 2026-05-08 07:52 | -1.96546 | 30.13035 | 4884 ft | 11 kts | 257° |
| 2026-05-08 07:52 | -1.96561 | 30.13001 | 4883 ft | 0 kts | 238° |
| 2026-05-08 07:53 | -1.96561 | 30.13000 | 4883 ft | 1 kts | 233° |
| 2026-05-08 07:53 | -1.96587 | 30.12987 | 4883 ft | 5 kts | 205° |
| 2026-05-08 07:53 | -1.96619 | 30.12971 | 4883 ft | 5 kts | 211° |
| 2026-05-08 07:53 | -1.96668 | 30.12929 | 4882 ft | 13 kts | 239° |
| 2026-05-08 07:54 | -1.96670 | 30.12830 | 4880 ft | 15 kts | 279° |
| 2026-05-08 07:54 | -1.96649 | 30.12714 | 4877 ft | 18 kts | 279° |
| 2026-05-08 07:54 | -1.96625 | 30.12577 | 4873 ft | 21 kts | 279° |
| 2026-05-08 07:54 | -1.96630 | 30.12430 | 4869 ft | 13 kts | 257° |
| 2026-05-08 07:55 | -1.96602 | 30.12446 | 4869 ft | 8 kts | 94° |
| 2026-05-08 07:55 | -1.96617 | 30.12540 | 4871 ft | 34 kts | 101° |
| 2026-05-08 07:55 | -1.96699 | 30.13009 | 4884 ft | 101 kts | 99° |
| 2026-05-08 07:55 | -1.96857 | 30.13912 | 4885 ft | 159 kts | 99° |
| 2026-05-08 07:56 | -1.97065 | 30.15148 | 5030 ft | 193 kts | 99° |
| 2026-05-08 07:56 | -1.97254 | 30.16428 | 5864 ft | 187 kts | 99° |
| 2026-05-08 07:56 | -1.97484 | 30.17759 | 6339 ft | 202 kts | 102° |
| 2026-05-08 07:56 | -1.97758 | 30.19129 | 6911 ft | 205 kts | 101° |
| 2026-05-08 07:57 | -1.98033 | 30.20600 | 7197 ft | 222 kts | 101° |
| 2026-05-08 07:57 | -1.98572 | 30.22117 | 7518 ft | 239 kts | 126° |
| 2026-05-08 07:57 | -1.99840 | 30.23175 | 8081 ft | 244 kts | 156° |
| 2026-05-08 07:57 | -2.01491 | 30.23575 | 8818 ft | 244 kts | 174° |
| 2026-05-08 07:58 | -2.03182 | 30.23441 | 9400 ft | 251 kts | 197° |
| 2026-05-08 07:58 | -2.04678 | 30.22501 | 10024 ft | 256 kts | 225° |
| 2026-05-08 07:58 | -2.05821 | 30.21155 | 10630 ft | 259 kts | 231° |
| 2026-05-08 07:58 | -2.06937 | 30.19715 | 11231 ft | 263 kts | 231° |
| 2026-05-08 07:59 | -2.08084 | 30.18281 | 11851 ft | 265 kts | 230° |
| 2026-05-08 07:59 | -2.09257 | 30.16868 | 12468 ft | 267 kts | 230° |
| 2026-05-08 07:59 | -2.10467 | 30.15434 | 13061 ft | 271 kts | 230° |
| 2026-05-08 07:59 | -2.11691 | 30.13991 | 13673 ft | 274 kts | 229° |
| 2026-05-08 08:00 | -2.12931 | 30.12527 | 14267 ft | 277 kts | 229° |
| 2026-05-08 08:00 | -2.14164 | 30.11071 | 14865 ft | 280 kts | 229° |
| 2026-05-08 08:00 | -2.15424 | 30.09582 | 15491 ft | 282 kts | 229° |
| 2026-05-08 08:00 | -2.16698 | 30.08075 | 16076 ft | 285 kts | 229° |
| 2026-05-08 08:01 | -2.17968 | 30.06574 | 16669 ft | 287 kts | 229° |
| 2026-05-08 08:01 | -2.19267 | 30.05038 | 17234 ft | 289 kts | 229° |
| 2026-05-08 08:01 | -2.20580 | 30.03485 | 17801 ft | 292 kts | 229° |
| 2026-05-08 08:01 | -2.21884 | 30.01942 | 18334 ft | 294 kts | 229° |
| 2026-05-08 08:02 | -2.23221 | 30.00360 | 18905 ft | 296 kts | 229° |
| 2026-05-08 08:02 | -2.24580 | 29.98782 | 19429 ft | 298 kts | 227° |
| 2026-05-08 08:02 | -2.26062 | 29.97329 | 19957 ft | 299 kts | 218° |
| 2026-05-08 08:02 | -2.27795 | 29.96085 | 20266 ft | 309 kts | 211° |
| 2026-05-08 08:03 | -2.29677 | 29.94958 | 20520 ft | 321 kts | 208° |
| 2026-05-08 08:03 | -2.31686 | 29.93811 | 20742 ft | 335 kts | 208° |
| 2026-05-08 08:03 | -2.33758 | 29.92624 | 20945 ft | 349 kts | 208° |
| 2026-05-08 08:03 | -2.35918 | 29.91368 | 21164 ft | 362 kts | 209° |
| 2026-05-08 08:04 | -2.38127 | 29.90067 | 21345 ft | 376 kts | 209° |
| 2026-05-08 08:04 | -2.40441 | 29.88693 | 21519 ft | 390 kts | 210° |
| 2026-05-08 08:04 | -2.42802 | 29.87286 | 21683 ft | 403 kts | 210° |
| 2026-05-08 08:04 | -2.45259 | 29.85817 | 22036 ft | 410 kts | 210° |
| 2026-05-08 08:05 | -2.47709 | 29.84351 | 22483 ft | 414 kts | 210° |
| 2026-05-08 08:05 | -2.50214 | 29.82850 | 22958 ft | 417 kts | 210° |
| 2026-05-08 08:05 | -2.52698 | 29.81363 | 23447 ft | 419 kts | 210° |
| 2026-05-08 08:05 | -2.55234 | 29.79844 | 23903 ft | 423 kts | 210° |
| 2026-05-08 08:06 | -2.57750 | 29.78336 | 24370 ft | 425 kts | 210° |
| 2026-05-08 08:06 | -2.60330 | 29.76791 | 24822 ft | 428 kts | 210° |
| 2026-05-08 08:06 | -2.62905 | 29.75249 | 25273 ft | 431 kts | 210° |
| 2026-05-08 08:06 | -2.65506 | 29.73690 | 25697 ft | 434 kts | 210° |
| 2026-05-08 08:07 | -2.68092 | 29.72141 | 26131 ft | 436 kts | 210° |
| 2026-05-08 08:07 | -2.70735 | 29.70557 | 26543 ft | 439 kts | 210° |
| 2026-05-08 08:07 | -2.73369 | 29.68980 | 26958 ft | 442 kts | 210° |
| 2026-05-08 08:07 | -2.76060 | 29.67368 | 27355 ft | 445 kts | 210° |
| 2026-05-08 08:08 | -2.78748 | 29.65758 | 27738 ft | 448 kts | 210° |
| 2026-05-08 08:08 | -2.81435 | 29.64149 | 28143 ft | 450 kts | 210° |
| 2026-05-08 08:08 | -2.84152 | 29.62520 | 28490 ft | 453 kts | 210° |
| 2026-05-08 08:08 | -2.86915 | 29.60865 | 28888 ft | 455 kts | 210° |
| 2026-05-08 08:09 | -2.89678 | 29.59209 | 29273 ft | 458 kts | 210° |
| 2026-05-08 08:09 | -2.92436 | 29.57556 | 29577 ft | 462 kts | 210° |
| 2026-05-08 08:09 | -2.95255 | 29.55867 | 30042 ft | 462 kts | 210° |
| 2026-05-08 08:09 | -2.98034 | 29.54201 | 30645 ft | 459 kts | 210° |
| 2026-05-08 08:10 | -3.00800 | 29.52542 | 31160 ft | 457 kts | 210° |
| 2026-05-08 08:10 | -3.03593 | 29.50868 | 31638 ft | 457 kts | 210° |
| 2026-05-08 08:10 | -3.06333 | 29.49225 | 32058 ft | 457 kts | 210° |
| 2026-05-08 08:10 | -3.09085 | 29.47574 | 32496 ft | 457 kts | 211° |
| 2026-05-08 08:11 | -3.11842 | 29.45921 | 32976 ft | 455 kts | 211° |
| 2026-05-08 08:11 | -3.14614 | 29.44257 | 33480 ft | 454 kts | 211° |
| 2026-05-08 08:11 | -3.17328 | 29.42627 | 34028 ft | 451 kts | 211° |
| 2026-05-08 08:11 | -3.20063 | 29.40986 | 34528 ft | 449 kts | 211° |
| 2026-05-08 08:12 | -3.22739 | 29.39381 | 35028 ft | 446 kts | 210° |
| 2026-05-08 08:12 | -3.25406 | 29.37781 | 35468 ft | 445 kts | 210° |
| 2026-05-08 08:12 | -3.28105 | 29.36161 | 35882 ft | 443 kts | 210° |
| 2026-05-08 08:12 | -3.30757 | 29.34591 | 36144 ft | 444 kts | 209° |
| 2026-05-08 08:13 | -3.33555 | 29.33150 | 36136 ft | 446 kts | 202° |
| 2026-05-08 08:13 | -3.36515 | 29.32223 | 36139 ft | 443 kts | 189° |
| 2026-05-08 08:13 | -3.39627 | 29.31831 | 36143 ft | 442 kts | 183° |
| 2026-05-08 08:14 | -3.45788 | 29.31576 | 36158 ft | 442 kts | 180° |
| 2026-05-08 08:14 | -3.52001 | 29.31472 | 36177 ft | 442 kts | 180° |
| 2026-05-08 08:15 | -3.58191 | 29.31337 | 36179 ft | 441 kts | 180° |
| 2026-05-08 08:15 | -3.64354 | 29.31161 | 36188 ft | 442 kts | 181° |
| 2026-05-08 08:16 | -3.70511 | 29.30962 | 36187 ft | 441 kts | 181° |
| 2026-05-08 08:16 | -3.76647 | 29.30754 | 36186 ft | 440 kts | 181° |
| 2026-05-08 08:17 | -3.82836 | 29.30542 | 36167 ft | 441 kts | 180° |
| 2026-05-08 08:17 | -3.88982 | 29.30329 | 36157 ft | 441 kts | 181° |
| 2026-05-08 08:18 | -3.95150 | 29.30117 | 36154 ft | 442 kts | 181° |
| 2026-05-08 08:18 | -4.01307 | 29.29912 | 36138 ft | 442 kts | 180° |
| 2026-05-08 08:19 | -4.07502 | 29.29747 | 36135 ft | 441 kts | 180° |
| 2026-05-08 08:19 | -4.13666 | 29.29597 | 36135 ft | 441 kts | 180° |
| 2026-05-08 08:20 | -4.19869 | 29.29446 | 36135 ft | 441 kts | 180° |
| 2026-05-08 08:20 | -4.26041 | 29.29292 | 36133 ft | 441 kts | 180° |
| 2026-05-08 08:21 | -4.32193 | 29.29136 | 36135 ft | 441 kts | 180° |
| 2026-05-08 08:21 | -4.38361 | 29.28979 | 36135 ft | 441 kts | 180° |
| 2026-05-08 08:22 | -4.44522 | 29.28822 | 36138 ft | 441 kts | 180° |
| 2026-05-08 08:22 | -4.50703 | 29.28664 | 36139 ft | 440 kts | 180° |
| 2026-05-08 08:23 | -4.56819 | 29.28507 | 36137 ft | 439 kts | 180° |
| 2026-05-08 08:23 | -4.62968 | 29.28349 | 36139 ft | 439 kts | 180° |
| 2026-05-08 08:24 | -4.69109 | 29.28192 | 36152 ft | 440 kts | 180° |
| 2026-05-08 08:24 | -4.75252 | 29.28035 | 36153 ft | 439 kts | 180° |
| 2026-05-08 08:25 | -4.81384 | 29.27879 | 36146 ft | 439 kts | 180° |
| 2026-05-08 08:25 | -4.87526 | 29.27720 | 36150 ft | 439 kts | 180° |
| 2026-05-08 08:26 | -4.93639 | 29.27564 | 36152 ft | 438 kts | 180° |
| 2026-05-08 08:26 | -4.99772 | 29.27407 | 36157 ft | 439 kts | 180° |
| 2026-05-08 08:27 | -5.05862 | 29.27251 | 36155 ft | 437 kts | 180° |
| 2026-05-08 08:27 | -5.12001 | 29.27093 | 36143 ft | 437 kts | 180° |
| 2026-05-08 08:28 | -5.18121 | 29.26928 | 36143 ft | 438 kts | 180° |
| 2026-05-08 08:28 | -5.24190 | 29.26757 | 36137 ft | 438 kts | 180° |
| 2026-05-08 08:29 | -5.30317 | 29.26583 | 36163 ft | 437 kts | 180° |
| 2026-05-08 08:29 | -5.36395 | 29.26411 | 36192 ft | 437 kts | 180° |
| 2026-05-08 08:30 | -5.42486 | 29.26240 | 36202 ft | 436 kts | 180° |
| 2026-05-08 08:30 | -5.51626 | 29.25984 | 36232 ft | 437 kts | 180° |
| 2026-05-08 08:31 | -5.57731 | 29.25814 | 36217 ft | 438 kts | 180° |
| 2026-05-08 08:31 | -5.63849 | 29.25642 | 36170 ft | 437 kts | 180° |
| 2026-05-08 08:32 | -5.69954 | 29.25469 | 36151 ft | 437 kts | 180° |
| 2026-05-08 08:32 | -5.76017 | 29.25299 | 36130 ft | 437 kts | 180° |
| 2026-05-08 08:33 | -5.82100 | 29.25129 | 36122 ft | 437 kts | 180° |
| 2026-05-08 08:33 | -5.88200 | 29.24945 | 36113 ft | 438 kts | 181° |
| 2026-05-08 08:34 | -5.94334 | 29.24562 | 36096 ft | 439 kts | 183° |
| 2026-05-08 08:34 | -6.00403 | 29.24086 | 36086 ft | 439 kts | 183° |
| 2026-05-08 08:35 | -6.06535 | 29.23607 | 36084 ft | 439 kts | 183° |
| 2026-05-08 08:35 | -6.12622 | 29.23147 | 36096 ft | 438 kts | 183° |
| 2026-05-08 08:36 | -6.18700 | 29.22699 | 36106 ft | 437 kts | 183° |
| 2026-05-08 08:36 | -6.24809 | 29.22254 | 36115 ft | 439 kts | 183° |
| 2026-05-08 08:37 | -6.30917 | 29.21812 | 36128 ft | 439 kts | 183° |
| 2026-05-08 08:37 | -6.37000 | 29.21373 | 36137 ft | 438 kts | 183° |
| 2026-05-08 08:38 | -6.43091 | 29.20933 | 36147 ft | 438 kts | 183° |
| 2026-05-08 08:38 | -6.49182 | 29.20492 | 36152 ft | 438 kts | 183° |
| 2026-05-08 08:39 | -6.55316 | 29.20049 | 36159 ft | 438 kts | 183° |
| 2026-05-08 08:39 | -6.61399 | 29.19609 | 36173 ft | 438 kts | 183° |
| 2026-05-08 08:40 | -6.67469 | 29.19171 | 36183 ft | 437 kts | 183° |
| 2026-05-08 08:40 | -6.73538 | 29.18737 | 36191 ft | 438 kts | 183° |
| 2026-05-08 08:41 | -6.79662 | 29.18298 | 36201 ft | 438 kts | 183° |
| 2026-05-08 08:41 | -6.85724 | 29.17864 | 36214 ft | 438 kts | 183° |
| 2026-05-08 08:42 | -6.91817 | 29.17428 | 36228 ft | 438 kts | 183° |
| 2026-05-08 08:42 | -6.97915 | 29.16989 | 36242 ft | 438 kts | 183° |
| 2026-05-08 08:43 | -7.04015 | 29.16551 | 36245 ft | 437 kts | 183° |
| 2026-05-08 08:43 | -7.10119 | 29.16114 | 36239 ft | 438 kts | 183° |
| 2026-05-08 08:44 | -7.16232 | 29.15674 | 36233 ft | 438 kts | 183° |
| 2026-05-08 08:44 | -7.22303 | 29.15238 | 36229 ft | 438 kts | 183° |
| 2026-05-08 08:45 | -7.28421 | 29.14798 | 36223 ft | 438 kts | 183° |
| 2026-05-08 08:45 | -7.34506 | 29.14361 | 36214 ft | 438 kts | 183° |
| 2026-05-08 08:46 | -7.40576 | 29.13925 | 36208 ft | 438 kts | 184° |
| 2026-05-08 08:46 | -7.46664 | 29.13487 | 36202 ft | 438 kts | 184° |
| 2026-05-08 08:47 | -7.52772 | 29.13047 | 36198 ft | 438 kts | 184° |
| 2026-05-08 08:47 | -7.58846 | 29.12610 | 36194 ft | 438 kts | 184° |
| 2026-05-08 08:48 | -7.64966 | 29.12170 | 36187 ft | 438 kts | 184° |
| 2026-05-08 08:48 | -7.71049 | 29.11732 | 36185 ft | 438 kts | 184° |
| 2026-05-08 08:49 | -7.77128 | 29.11294 | 36171 ft | 438 kts | 184° |
| 2026-05-08 08:49 | -7.83227 | 29.10850 | 36169 ft | 438 kts | 184° |
| 2026-05-08 08:50 | -7.89315 | 29.10405 | 36157 ft | 437 kts | 184° |
| 2026-05-08 08:50 | -7.95412 | 29.09958 | 36141 ft | 438 kts | 184° |
| 2026-05-08 08:51 | -8.01468 | 29.09514 | 36132 ft | 438 kts | 184° |
| 2026-05-08 08:51 | -8.07568 | 29.09068 | 36137 ft | 438 kts | 184° |
| 2026-05-08 08:52 | -8.13680 | 29.08621 | 36142 ft | 439 kts | 184° |
| 2026-05-08 08:52 | -8.19780 | 29.08175 | 36149 ft | 438 kts | 184° |
| 2026-05-08 08:53 | -8.25872 | 29.07729 | 36154 ft | 437 kts | 184° |
| 2026-05-08 08:53 | -8.31940 | 29.07285 | 36149 ft | 437 kts | 184° |
| 2026-05-08 08:54 | -8.38043 | 29.06838 | 36134 ft | 436 kts | 184° |
| 2026-05-08 08:54 | -8.44136 | 29.06391 | 36127 ft | 436 kts | 184° |
| 2026-05-08 08:55 | -8.50216 | 29.05946 | 36120 ft | 437 kts | 184° |
| 2026-05-08 08:55 | -8.56346 | 29.05496 | 36119 ft | 439 kts | 184° |
| 2026-05-08 08:56 | -8.62445 | 29.05049 | 36115 ft | 440 kts | 184° |
| 2026-05-08 08:56 | -8.68580 | 29.04599 | 36112 ft | 439 kts | 184° |
| 2026-05-08 08:57 | -8.74707 | 29.04151 | 36112 ft | 439 kts | 184° |
| 2026-05-08 08:57 | -8.80799 | 29.03703 | 36114 ft | 439 kts | 184° |
| 2026-05-08 08:58 | -8.86900 | 29.03255 | 36106 ft | 439 kts | 184° |
| 2026-05-08 08:58 | -8.93016 | 29.02804 | 36105 ft | 440 kts | 184° |
| 2026-05-08 08:59 | -8.99133 | 29.02355 | 36102 ft | 439 kts | 184° |
| 2026-05-08 08:59 | -9.05234 | 29.01907 | 36100 ft | 437 kts | 184° |
| 2026-05-08 09:00 | -9.11288 | 29.01461 | 36094 ft | 436 kts | 184° |
| 2026-05-08 09:00 | -9.17388 | 29.01017 | 36102 ft | 438 kts | 184° |
| 2026-05-08 09:01 | -9.23498 | 29.00575 | 36112 ft | 440 kts | 184° |
| 2026-05-08 09:01 | -9.29605 | 29.00136 | 36128 ft | 440 kts | 184° |
| 2026-05-08 09:02 | -9.35730 | 28.99693 | 36135 ft | 440 kts | 184° |
| 2026-05-08 09:02 | -9.41857 | 28.99251 | 36149 ft | 438 kts | 184° |
| 2026-05-08 09:03 | -9.47917 | 28.98812 | 36166 ft | 435 kts | 184° |
| 2026-05-08 09:03 | -9.54007 | 28.98370 | 36174 ft | 436 kts | 185° |
| 2026-05-08 09:04 | -9.60075 | 28.97929 | 36179 ft | 437 kts | 185° |
| 2026-05-08 09:04 | -9.66150 | 28.97489 | 36189 ft | 437 kts | 185° |
| 2026-05-08 09:05 | -9.72234 | 28.97048 | 36192 ft | 438 kts | 185° |
| 2026-05-08 09:05 | -9.78317 | 28.96607 | 36196 ft | 438 kts | 185° |
| 2026-05-08 09:06 | -9.84396 | 28.96165 | 36199 ft | 439 kts | 185° |
| 2026-05-08 09:06 | -9.90519 | 28.95720 | 36187 ft | 440 kts | 185° |
| 2026-05-08 09:07 | -9.96664 | 28.95274 | 36178 ft | 442 kts | 185° |
| 2026-05-08 09:07 | -10.02817 | 28.94827 | 36185 ft | 441 kts | 185° |
| 2026-05-08 09:08 | -10.08929 | 28.94380 | 36186 ft | 442 kts | 185° |
| 2026-05-08 09:08 | -10.15103 | 28.93904 | 36186 ft | 442 kts | 185° |
| 2026-05-08 09:09 | -10.21258 | 28.93420 | 36184 ft | 442 kts | 185° |
| 2026-05-08 09:09 | -10.27408 | 28.92937 | 36180 ft | 442 kts | 185° |
| 2026-05-08 09:10 | -10.33556 | 28.92455 | 36178 ft | 442 kts | 185° |
| 2026-05-08 09:10 | -10.39693 | 28.91975 | 36178 ft | 442 kts | 185° |
| 2026-05-08 09:11 | -10.45832 | 28.91496 | 36177 ft | 443 kts | 185° |
| 2026-05-08 09:11 | -10.52006 | 28.91014 | 36174 ft | 443 kts | 185° |
| 2026-05-08 09:12 | -10.58158 | 28.90534 | 36176 ft | 443 kts | 185° |
| 2026-05-08 09:12 | -10.64309 | 28.90053 | 36185 ft | 443 kts | 185° |
| 2026-05-08 09:13 | -10.70458 | 28.89573 | 36192 ft | 443 kts | 185° |
| 2026-05-08 09:13 | -10.76618 | 28.89092 | 36193 ft | 443 kts | 185° |
| 2026-05-08 09:14 | -10.82793 | 28.88609 | 36198 ft | 445 kts | 185° |
| 2026-05-08 09:14 | -10.88986 | 28.88124 | 36197 ft | 443 kts | 185° |
| 2026-05-08 09:15 | -10.95113 | 28.87644 | 36198 ft | 443 kts | 185° |
| 2026-05-08 09:15 | -11.01287 | 28.87161 | 36200 ft | 444 kts | 185° |
| 2026-05-08 09:16 | -11.07452 | 28.86678 | 36198 ft | 444 kts | 185° |
| 2026-05-08 09:16 | -11.13641 | 28.86188 | 36198 ft | 445 kts | 186° |
| 2026-05-08 09:17 | -11.19836 | 28.85587 | 36199 ft | 445 kts | 187° |
| 2026-05-08 09:17 | -11.25998 | 28.84924 | 36197 ft | 444 kts | 187° |
| 2026-05-08 09:18 | -11.32158 | 28.84260 | 36198 ft | 444 kts | 187° |
| 2026-05-08 09:18 | -11.38315 | 28.83605 | 36204 ft | 444 kts | 187° |
| 2026-05-08 09:19 | -11.44481 | 28.82956 | 36207 ft | 445 kts | 187° |
| 2026-05-08 09:19 | -11.50662 | 28.82310 | 36207 ft | 446 kts | 187° |
| 2026-05-08 09:20 | -11.56840 | 28.81666 | 36201 ft | 446 kts | 187° |
| 2026-05-08 09:20 | -11.63021 | 28.81021 | 36196 ft | 446 kts | 187° |
| 2026-05-08 09:21 | -11.69217 | 28.80375 | 36191 ft | 445 kts | 187° |
| 2026-05-08 09:23 | -11.90863 | 28.78114 | 36167 ft | 447 kts | 187° |
| 2026-05-08 09:23 | -11.97026 | 28.77469 | 36157 ft | 446 kts | 187° |
| 2026-05-08 09:24 | -12.03234 | 28.76820 | 36157 ft | 446 kts | 187° |
| 2026-05-08 09:24 | -12.09400 | 28.76175 | 36162 ft | 446 kts | 187° |
| 2026-05-08 09:25 | -12.15622 | 28.75523 | 36165 ft | 447 kts | 187° |
| 2026-05-08 09:25 | -12.21799 | 28.74877 | 36172 ft | 446 kts | 188° |
| 2026-05-08 09:26 | -12.27972 | 28.74231 | 36175 ft | 446 kts | 188° |
| 2026-05-08 09:26 | -12.34172 | 28.73581 | 36179 ft | 446 kts | 188° |
| 2026-05-08 09:27 | -12.40372 | 28.72930 | 36184 ft | 445 kts | 188° |
| 2026-05-08 09:27 | -12.46532 | 28.72283 | 36189 ft | 446 kts | 188° |
| 2026-05-08 09:28 | -12.52749 | 28.71630 | 36193 ft | 446 kts | 188° |
| 2026-05-08 09:28 | -12.58926 | 28.70983 | 36193 ft | 446 kts | 188° |
| 2026-05-08 09:29 | -12.65087 | 28.70335 | 36197 ft | 445 kts | 188° |
| 2026-05-08 09:29 | -12.71293 | 28.69683 | 36200 ft | 445 kts | 188° |
| 2026-05-08 09:30 | -12.77462 | 28.69036 | 36198 ft | 446 kts | 188° |
| 2026-05-08 09:30 | -12.83633 | 28.68384 | 36203 ft | 445 kts | 188° |
| 2026-05-08 09:31 | -12.89794 | 28.67736 | 36204 ft | 445 kts | 188° |
| 2026-05-08 09:31 | -12.95976 | 28.67083 | 36205 ft | 445 kts | 188° |
| 2026-05-08 09:32 | -13.02151 | 28.66430 | 36206 ft | 444 kts | 188° |
| 2026-05-08 09:32 | -13.08321 | 28.65783 | 36206 ft | 444 kts | 188° |
| 2026-05-08 09:33 | -13.14496 | 28.65138 | 36203 ft | 443 kts | 188° |
| 2026-05-08 09:33 | -13.20624 | 28.64498 | 36201 ft | 444 kts | 189° |
| 2026-05-08 09:34 | -13.26790 | 28.63852 | 36203 ft | 444 kts | 189° |
| 2026-05-08 09:34 | -13.32966 | 28.63205 | 36203 ft | 444 kts | 189° |
| 2026-05-08 09:35 | -13.39081 | 28.62563 | 36204 ft | 444 kts | 189° |
| 2026-05-08 09:35 | -13.45279 | 28.61913 | 36203 ft | 444 kts | 189° |
| 2026-05-08 09:36 | -13.51437 | 28.61271 | 36203 ft | 444 kts | 189° |
| 2026-05-08 09:36 | -13.57550 | 28.60629 | 36203 ft | 443 kts | 189° |
| 2026-05-08 09:37 | -13.63726 | 28.59978 | 36203 ft | 442 kts | 189° |
| 2026-05-08 09:37 | -13.69827 | 28.59336 | 36201 ft | 442 kts | 189° |
| 2026-05-08 09:38 | -13.75967 | 28.58691 | 36195 ft | 442 kts | 189° |
| 2026-05-08 09:38 | -13.79023 | 28.58371 | 35906 ft | 438 kts | 189° |
| 2026-05-08 09:38 | -13.82043 | 28.58054 | 35434 ft | 434 kts | 189° |
| 2026-05-08 09:38 | -13.85032 | 28.57740 | 34883 ft | 430 kts | 189° |
| 2026-05-08 09:39 | -13.87988 | 28.57429 | 34506 ft | 426 kts | 189° |
| 2026-05-08 09:39 | -13.90955 | 28.57116 | 34042 ft | 431 kts | 189° |
| 2026-05-08 09:39 | -13.93979 | 28.56804 | 33508 ft | 438 kts | 188° |
| 2026-05-08 09:39 | -13.97034 | 28.56634 | 32984 ft | 438 kts | 184° |
| 2026-05-08 09:40 | -14.00084 | 28.56697 | 32422 ft | 437 kts | 180° |
| 2026-05-08 09:40 | -14.03109 | 28.56906 | 31925 ft | 434 kts | 179° |
| 2026-05-08 09:40 | -14.06108 | 28.57182 | 31430 ft | 430 kts | 179° |
| 2026-05-08 09:40 | -14.09075 | 28.57480 | 30942 ft | 427 kts | 179° |
| 2026-05-08 09:41 | -14.12014 | 28.57778 | 30449 ft | 423 kts | 179° |
| 2026-05-08 09:41 | -14.14950 | 28.58070 | 29963 ft | 419 kts | 179° |
| 2026-05-08 09:41 | -14.17834 | 28.58349 | 29486 ft | 415 kts | 179° |
| 2026-05-08 09:41 | -14.20698 | 28.58619 | 29007 ft | 411 kts | 180° |
| 2026-05-08 09:42 | -14.23536 | 28.58881 | 28526 ft | 407 kts | 180° |
| 2026-05-08 09:42 | -14.26360 | 28.59138 | 28052 ft | 403 kts | 180° |
| 2026-05-08 09:42 | -14.29150 | 28.59389 | 27582 ft | 399 kts | 180° |
| 2026-05-08 09:42 | -14.31914 | 28.59636 | 27106 ft | 396 kts | 180° |
| 2026-05-08 09:43 | -14.34620 | 28.59877 | 26640 ft | 393 kts | 179° |
| 2026-05-08 09:43 | -14.37340 | 28.60119 | 26172 ft | 390 kts | 179° |
| 2026-05-08 09:43 | -14.40068 | 28.60361 | 25692 ft | 387 kts | 179° |
| 2026-05-08 09:43 | -14.42743 | 28.60599 | 25221 ft | 384 kts | 179° |
| 2026-05-08 09:44 | -14.45394 | 28.60834 | 24759 ft | 382 kts | 179° |
| 2026-05-08 09:44 | -14.48033 | 28.61069 | 24293 ft | 379 kts | 178° |
| 2026-05-08 09:44 | -14.50626 | 28.61300 | 23835 ft | 376 kts | 178° |
| 2026-05-08 09:44 | -14.53233 | 28.61533 | 23372 ft | 374 kts | 178° |
| 2026-05-08 09:45 | -14.55823 | 28.61764 | 22909 ft | 371 kts | 178° |
| 2026-05-08 09:45 | -14.58390 | 28.61993 | 22447 ft | 369 kts | 178° |
| 2026-05-08 09:45 | -14.60945 | 28.62221 | 22000 ft | 367 kts | 178° |
| 2026-05-08 09:45 | -14.63480 | 28.62446 | 21554 ft | 365 kts | 177° |
| 2026-05-08 09:46 | -14.66010 | 28.62672 | 21100 ft | 363 kts | 178° |
| 2026-05-08 09:46 | -14.68514 | 28.62896 | 20646 ft | 361 kts | 177° |
| 2026-05-08 09:46 | -14.71043 | 28.63122 | 20182 ft | 360 kts | 177° |
| 2026-05-08 09:46 | -14.73527 | 28.63344 | 19726 ft | 358 kts | 177° |
| 2026-05-08 09:47 | -14.76004 | 28.63565 | 19275 ft | 356 kts | 177° |
| 2026-05-08 09:47 | -14.78469 | 28.63759 | 18816 ft | 354 kts | 180° |
| 2026-05-08 09:47 | -14.80920 | 28.63672 | 18360 ft | 349 kts | 191° |
| 2026-05-08 09:47 | -14.83235 | 28.62992 | 17916 ft | 343 kts | 206° |
| 2026-05-08 09:48 | -14.85290 | 28.61790 | 17485 ft | 338 kts | 218° |
| 2026-05-08 09:48 | -14.87101 | 28.60277 | 17049 ft | 334 kts | 225° |
| 2026-05-08 09:48 | -14.88668 | 28.58537 | 16624 ft | 330 kts | 233° |
| 2026-05-08 09:48 | -14.90033 | 28.56650 | 16206 ft | 327 kts | 237° |
| 2026-05-08 09:49 | -14.91305 | 28.54720 | 15787 ft | 324 kts | 238° |
| 2026-05-08 09:49 | -14.92555 | 28.52801 | 15377 ft | 322 kts | 237° |
| 2026-05-08 09:49 | -14.93818 | 28.50895 | 14961 ft | 321 kts | 237° |
| 2026-05-08 09:49 | -14.95087 | 28.49017 | 14544 ft | 319 kts | 236° |
| 2026-05-08 09:50 | -14.96363 | 28.47152 | 14131 ft | 317 kts | 236° |
| 2026-05-08 09:50 | -14.97632 | 28.45308 | 13727 ft | 314 kts | 236° |
| 2026-05-08 09:50 | -14.98898 | 28.43471 | 13321 ft | 312 kts | 236° |
| 2026-05-08 09:50 | -15.00155 | 28.41649 | 12914 ft | 310 kts | 235° |
| 2026-05-08 09:51 | -15.01402 | 28.39840 | 12516 ft | 309 kts | 236° |
| 2026-05-08 09:51 | -15.02644 | 28.38035 | 12111 ft | 307 kts | 236° |
| 2026-05-08 09:51 | -15.03858 | 28.36243 | 11812 ft | 301 kts | 236° |
| 2026-05-08 09:51 | -15.05043 | 28.34466 | 11305 ft | 300 kts | 236° |
| 2026-05-08 09:52 | -15.06228 | 28.32682 | 10740 ft | 299 kts | 236° |
| 2026-05-08 09:52 | -15.07394 | 28.30931 | 10283 ft | 299 kts | 236° |
| 2026-05-08 09:52 | -15.08568 | 28.29182 | 10097 ft | 289 kts | 235° |
| 2026-05-08 09:52 | -15.09884 | 28.27610 | 9714 ft | 289 kts | 220° |
| 2026-05-08 09:53 | -15.11656 | 28.26660 | 9354 ft | 287 kts | 193° |
| 2026-05-08 09:53 | -15.13613 | 28.26358 | 8980 ft | 279 kts | 184° |
| 2026-05-08 09:53 | -15.15521 | 28.26220 | 8644 ft | 269 kts | 184° |
| 2026-05-08 09:53 | -15.17347 | 28.26070 | 8443 ft | 255 kts | 185° |
| 2026-05-08 09:54 | -15.19061 | 28.25886 | 8376 ft | 239 kts | 186° |
| 2026-05-08 09:54 | -15.20661 | 28.25693 | 8323 ft | 222 kts | 186° |
| 2026-05-08 09:54 | -15.22158 | 28.25508 | 8257 ft | 209 kts | 185° |
| 2026-05-08 09:54 | -15.23572 | 28.25339 | 8079 ft | 201 kts | 185° |
| 2026-05-08 09:55 | -15.25422 | 28.25146 | 7716 ft | 199 kts | 184° |
| 2026-05-08 09:55 | -15.26332 | 28.25055 | 7564 ft | 196 kts | 184° |
| 2026-05-08 09:55 | -15.27682 | 28.24914 | 7349 ft | 191 kts | 184° |
| 2026-05-08 09:55 | -15.29011 | 28.24797 | 7140 ft | 189 kts | 178° |
| 2026-05-08 09:56 | -15.30271 | 28.25063 | 6991 ft | 186 kts | 147° |
| 2026-05-08 09:56 | -15.31111 | 28.26025 | 6939 ft | 181 kts | 110° |
| 2026-05-08 09:56 | -15.31398 | 28.27272 | 6817 ft | 178 kts | 99° |
| 2026-05-08 09:56 | -15.31572 | 28.28516 | 6516 ft | 168 kts | 97° |
| 2026-05-08 09:57 | -15.31793 | 28.30721 | 6087 ft | 145 kts | 96° |
| 2026-05-08 09:57 | -15.31894 | 28.31785 | 5913 ft | 151 kts | 95° |
| 2026-05-08 09:57 | -15.31983 | 28.32861 | 5740 ft | 152 kts | 93° |
| 2026-05-08 09:58 | -15.32048 | 28.33977 | 5469 ft | 154 kts | 95° |
| 2026-05-08 09:58 | -15.32155 | 28.35039 | 5268 ft | 147 kts | 97° |
| 2026-05-08 09:58 | -15.32283 | 28.36084 | 5111 ft | 144 kts | 97° |
| 2026-05-08 09:58 | -15.32381 | 28.37124 | 4919 ft | 146 kts | 94° |
| 2026-05-08 09:59 | -15.32455 | 28.38170 | 4734 ft | 146 kts | 95° |
| 2026-05-08 09:59 | -15.32550 | 28.39215 | 4556 ft | 146 kts | 95° |
| 2026-05-08 09:59 | -15.32634 | 28.40269 | 4378 ft | 145 kts | 95° |
| 2026-05-08 09:59 | -15.32735 | 28.41307 | 4197 ft | 144 kts | 95° |
| 2026-05-08 10:00 | -15.32816 | 28.42337 | 4016 ft | 142 kts | 95° |
| 2026-05-08 10:00 | -15.32917 | 28.43341 | 3846 ft | 141 kts | 95° |
| 2026-05-08 10:00 | -15.32993 | 28.44297 | 3790 ft | 111 kts | 95° |
| 2026-05-08 10:00 | -15.33040 | 28.44864 | 3778 ft | 50 kts | 95° |
| 2026-05-08 10:01 | -15.33064 | 28.45105 | 3773 ft | 20 kts | 94° |
| 2026-05-08 10:01 | -15.33043 | 28.45186 | 3773 ft | 11 kts | 29° |
| 2026-05-08 10:01 | -15.32972 | 28.45186 | 3774 ft | 9 kts | 345° |
| 2026-05-08 10:01 | -15.32920 | 28.45167 | 3776 ft | 6 kts | 328° |
| 2026-05-08 10:02 | -15.32895 | 28.45144 | 3777 ft | 4 kts | 307° |
| 2026-05-08 10:02 | -15.32876 | 28.45100 | 3778 ft | 7 kts | 288° |
| 2026-05-08 10:02 | -15.32844 | 28.45067 | 3779 ft | 6 kts | 350° |
| 2026-05-08 10:02 | -15.32803 | 28.45066 | 3779 ft | 4 kts | 2° |
| 2026-05-08 10:03 | -15.32773 | 28.45068 | 3780 ft | 4 kts | 5° |
| 2026-05-08 10:03 | -15.32746 | 28.45071 | 3780 ft | 3 kts | 7° |
| 2026-05-08 10:03 | -15.32728 | 28.45073 | 3781 ft | 1 kts | 8° |
| 2026-05-08 10:03 | -15.32716 | 28.45075 | 3781 ft | 0 kts | 6° |
| 2026-05-08 10:04 | -15.32697 | 28.45077 | 3782 ft | 2 kts | 6° |
| 2026-05-08 10:04 | -15.32688 | 28.45078 | 3783 ft | 2 kts | 5° |
| 2026-05-08 10:04 | -15.32679 | 28.45078 | 3783 ft | 0 kts | 4° |